Terminal Aerodrome Forecast
Issued by NWS

Home | Current Version | Previous Version | Text Only | Print | Product List | Glossary On
Versions: 1 2 3 4 5 6 7 8 9 10 11 12 13
000
FTUS43 KMQT 301128
TAFSAW
TAF
KSAW 301128Z 3012/3112 11006KT P6SM OVC060
     FM301700 11008KT P6SM BKN025
     FM310500 03010KT P6SM BKN025=

USA.gov is the U.S. government's official web portal to all federal, state and local government web resources and services.